Flight Track Log - Related Links

Times and Time Zones

All times are in EDT time to prevent confusion due to time zone crossing. See the UAL4693 flight status page for this flight to view local times or setup timezone preferences in your user account.

Time Position Orientation Groundspeed Altitude Reporting Facility
EDT Latitude Longitude Course Direction KTS MPH feet Rate Location/Type
Sun 10:58:51 AM 38.7667 -90.4167 80° East 152 175 1,700  Level Gateway (St. Louis) TRACON
Sun 10:59:51 AM 38.8167 -90.4167 360° North 208 239 3,200 1,304 Climbing Gateway (St. Louis) TRACON
Sun 11:00:23 AM 38.8153 -90.3844 93° East 230 265 3,700 1,660 Climbing Kansas City Center
Sun 11:01:25 AM 38.8122 -90.2903 92° East 249 287 5,800 2,226 Climbing Kansas City Center
Sun 11:02:00 AM 38.7601 -89.8436 87° East  Level FlightAware Approximate
Sun 11:02:27 AM 38.8081 -90.1725 93° East 267 307 8,300  Level Kansas City Center
Sun 11:03:00 AM 38.7650 -89.7127 87° East  Level FlightAware Approximate
Sun 11:03:29 AM 38.8047 -90.0711 92° East 279 321 10,300  Level Kansas City Center
Sun 11:04:00 AM 38.7786 -89.5830 80° East  Level FlightAware Approximate
Sun 11:04:31 AM 38.8011 -89.9628 92° East 296 341 11,500  Level Kansas City Center
Sun 11:05:33 AM 38.7967 -89.8417 93° East 328 377 12,600 1,306 Climbing Kansas City Center
Sun 11:06:35 AM 38.7922 -89.7181 93° East 343 395 14,200 1,415 Climbing Kansas City Center
Sun 11:07:36 AM 38.7878 -89.5789 92° East 351 404 15,500 1,171 Climbing Kansas City Center
Sun 11:08:38 AM 38.8008 -89.4411 83° East 367 422 16,600 1,065 Climbing Kansas City Center
Sun 11:09:40 AM 38.8178 -89.3106 81° East 371 427 17,700 1,113 Climbing Kansas City Center
Sun 11:10:42 AM 38.8344 -89.1761 81° East 380 437 18,900 1,210 Climbing Kansas City Center
Sun 11:11:44 AM 38.8531 -89.0317 81° East 382 440 20,200 1,113 Climbing Kansas City Center
Sun 11:12:46 AM 38.8700 -88.9036 80° East 390 449 21,200 1,022 Climbing Kansas City Center
Sun 11:14:46 AM 38.9039 -88.6111 81° East 404 465 23,300 1,127 Climbing Indianapolis Center
Sun 11:15:47 AM 38.9231 -88.4683 80° East 404 465 24,600 1,366 Climbing Indianapolis Center
Sun 11:16:49 AM 38.9611 -88.3369 70° East 391 450 26,100 1,463 Climbing Indianapolis Center
Sun 11:17:50 AM 38.9964 -88.2083 71° East 381 438 27,600 1,366 Climbing Indianapolis Center
Sun 11:18:52 AM 39.0311 -88.0833 70° East 372 428 28,900 1,073 Climbing Indianapolis Center
Sun 11:19:53 AM 39.0661 -87.9572 70° East 371 427 29,800 927 Climbing Indianapolis Center
Sun 11:20:55 AM 39.1053 -87.8294 68° East 380 437 30,800 976 Climbing Indianapolis Center
Sun 11:21:56 AM 39.1567 -87.7092 61° Northeast 380 437 31,800 1,024 Climbing Indianapolis Center
Sun 11:22:58 AM 39.2108 -87.5806 61° Northeast 386 444 32,900 1,024 Climbing Indianapolis Center
Sun 11:23:59 AM 39.2617 -87.4564 62° Northeast 388 447 33,900 927 Climbing Indianapolis Center
Sun 11:25:01 AM 39.3133 -87.3333 61° Northeast 387 445 34,800 537 Climbing Indianapolis Center
Sun 11:26:02 AM 39.3733 -87.1878 62° Northeast 393 452 35,000 98 Climbing Indianapolis Center
Sun 11:27:04 AM 39.4278 -87.0533 62° Northeast 416 479 35,000  Level Indianapolis Center
Sun 11:28:05 AM 39.4847 -86.9142 62° Northeast 433 498 35,000  Level Indianapolis Center
Sun 11:29:06 AM 39.5439 -86.7703 62° Northeast 447 514 35,000  Level Indianapolis Center
Sun 11:30:08 AM 39.6031 -86.6219 63° Northeast 460 529 35,000  Level Indianapolis Center
Sun 11:31:09 AM 39.6608 -86.4786 62° Northeast 448 516 35,000  Level Indianapolis Center
Sun 11:32:11 AM 39.7153 -86.3406 63° Northeast 436 502 35,000  Level Indianapolis Center
Sun 11:33:12 AM 39.7728 -86.1997 62° Northeast 438 504 35,000  Level Indianapolis Center
Sun 11:34:13 AM 39.8367 -86.0378 63° Northeast 450 518 35,000  Level Indianapolis Center
Sun 11:35:15 AM 39.8953 -85.8883 63° Northeast 458 527 35,000  Level Indianapolis Center
Sun 11:36:16 AM 39.9528 -85.7414 63° Northeast 456 525 35,000  Level Indianapolis Center
Sun 11:37:18 AM 40.0086 -85.5978 63° Northeast 447 514 35,000  Level Indianapolis Center
Sun 11:38:19 AM 40.0644 -85.4556 63° Northeast 440 506 35,000  Level Indianapolis Center
Sun 11:39:21 AM 40.1183 -85.3147 63° Northeast 434 499 35,000  Level Indianapolis Center
Sun 11:40:22 AM 40.1728 -85.1750 63° Northeast 430 495 35,000  Level Indianapolis Center
Sun 11:41:24 AM 40.2278 -85.0306 63° Northeast 439 505 35,000  Level Indianapolis Center
Sun 11:42:25 AM 40.2850 -84.8797 64° Northeast 447 514 35,000  Level Indianapolis Center
Sun 11:43:26 AM 40.3433 -84.7281 63° Northeast 456 525 35,000  Level Indianapolis Center
Sun 11:44:28 AM 40.3986 -84.5789 64° Northeast 448 516 35,000  Level Indianapolis Center
Sun 11:45:29 AM 40.4650 -84.4047 63° Northeast 453 521 35,000  Level Indianapolis Center
Sun 11:46:31 AM 40.5217 -84.2503 64° Northeast 462 532 35,000  Level Indianapolis Center
Sun 11:47:32 AM 40.5797 -84.0947 64° Northeast 467 537 35,000  Level Indianapolis Center
Sun 11:48:34 AM 40.6372 -83.9386 64° Northeast 467 537 35,000  Level Indianapolis Center
Sun 11:49:35 AM 40.6950 -83.7825 64° Northeast 466 536 35,000 49 Level Indianapolis Center
Sun 11:50:37 AM 40.7506 -83.6278 65° Northeast 463 533 35,100 396 Climbing Indianapolis Center
Sun 11:51:21 AM 40.7900 -83.5231 64° Northeast 457 526 35,700 519 Climbing Cleveland Center
Sun 11:52:21 AM 40.8417 -83.3744 65° Northeast 452 520 36,000 150 Climbing Cleveland Center
Sun 11:53:21 AM 40.8975 -83.2203 64° Northeast 460 529 36,000  Level Cleveland Center
Sun 11:54:21 AM 40.9531 -83.0658 64° Northeast 460 529 36,000 50 Level Cleveland Center
Sun 11:55:22 AM 41.0153 -82.8947 64° Northeast 460 529 36,100 496 Climbing Cleveland Center
Sun 11:56:22 AM 41.0619 -82.7422 68° East 454 522 37,000 454 Climbing Cleveland Center
Sun 11:57:21 AM 41.0919 -82.5833 76° East 444 511 37,000  Level Cleveland Center
Sun 11:58:21 AM 41.1217 -82.4244 76° East 439 505 37,000  Level Cleveland Center
Sun 11:59:21 AM 41.1492 -82.2625 77° East 446 513 37,000  Level Cleveland Center
Sun 12:00:21 PM 41.1739 -82.1306 76° East 452 520 37,000  Level Cleveland Center
Sun 12:01:21 PM 41.2097 -81.9494 75° East 452 520 37,000  Level Cleveland Center
Sun 12:02:21 PM 41.2367 -81.7814 78° East 452 520 37,000  Level Cleveland Center
Sun 12:03:21 PM 41.2653 -81.6164 77° East 452 520 37,000  Level Cleveland Center
Sun 12:04:21 PM 41.2958 -81.4481 76° East 457 526 37,000  Level Cleveland Center
Sun 12:05:22 PM 41.3264 -81.2633 78° East 457 526 37,000  Level Cleveland Center
Sun 12:06:22 PM 41.3544 -81.0894 78° East 470 541 37,000  Level Cleveland Center
Sun 12:07:22 PM 41.3819 -80.9236 77° East 465 535 37,000  Level Cleveland Center
Sun 12:08:21 PM 41.4117 -80.7519 77° East 471 542 37,000  Level Cleveland Center
Sun 12:09:22 PM 41.4408 -80.5803 77° East 471 542 37,000  Level Cleveland Center
Sun 12:10:22 PM 41.4678 -80.4086 78° East 471 542 37,000  Level Cleveland Center
Sun 12:11:22 PM 41.4947 -80.2506 77° East 480 552 37,000  Level Cleveland Center
Sun 12:12:21 PM 41.5231 -80.0756 78° East 480 552 37,000  Level Cleveland Center
Sun 12:13:21 PM 41.5533 -79.8839 78° East 480 552 37,000  Level Cleveland Center
Sun 12:14:21 PM 41.5814 -79.7058 78° East 485 558 37,000  Level Cleveland Center
Sun 12:15:21 PM 41.6092 -79.5250 78° East 490 564 37,000  Level Cleveland Center
Sun 12:16:22 PM 41.6364 -79.3467 78° East 490 564 37,000  Level Cleveland Center
Sun 12:17:22 PM 41.6531 -79.1686 83° East 490 564 37,000  Level Cleveland Center
Sun 12:18:21 PM 41.6342 -78.9911 98° East 475 547 37,000  Level Cleveland Center
Sun 12:19:22 PM 41.6128 -78.8167 99° East 475 547 37,000 -645 Level Cleveland Center
Sun 12:20:22 PM 41.5933 -78.6369 98° East 482 555 35,700 -1,400 Descending Cleveland Center
Sun 12:21:22 PM 41.5714 -78.4569 99° East 487 560 34,200 -1,546 Descending Cleveland Center
Sun 12:23:05 PM 41.5381 -78.1822 99° East 471 542 31,500 -1,829 Descending New York Center
Sun 12:24:06 PM 41.5172 -78.0108 99° East 471 542 29,200 -1,230 Descending New York Center
Sun 12:25:07 PM 41.4939 -77.8450 101° East 466 536 29,000 -102 Descending New York Center
Sun 12:26:04 PM 41.4706 -77.6761 100° East 461 531 29,000  Level New York Center
Sun 12:27:05 PM 41.4453 -77.5019 101° East 461 531 29,000  Level New York Center
Sun 12:28:05 PM 41.4178 -77.3194 101° East 461 531 29,000  Level New York Center
Sun 12:29:05 PM 41.3917 -77.1481 101° East 461 531 29,000  Level New York Center
Sun 12:30:06 PM 41.3678 -76.9744 100° East 461 531 29,000 -694 Level New York Center
Sun 12:31:06 PM 41.3428 -76.8117 102° East 479 551 27,600 -1,835 Descending New York Center
Sun 12:32:07 PM 41.3011 -76.6422 108° East 479 551 25,300 -2,288 Descending New York Center
Sun 12:33:04 PM 41.2572 -76.4783 110° East 479 551 23,100 -2,308 Descending New York Center
Sun 12:34:04 PM 41.2142 -76.3286 111° Southeast 456 525 20,800 -2,430 Descending New York Center
Sun 12:35:05 PM 41.1739 -76.1653 108° East 428 493 18,200 -1,388 Descending New York Center
Sun 12:36:05 PM 41.1344 -76.0217 110° East 417 480 18,000 -98 Descending New York Center
Sun 12:37:07 PM 41.0986 -75.8922 110° East 417 480 18,000  Level New York Center
Sun 12:38:04 PM 41.0606 -75.7544 110° East 412 474 18,000 -908 Level New York Center
Sun 12:39:06 PM 41.0192 -75.5975 109° East 412 474 16,200 -2,200 Descending New York Center
Sun 12:40:04 PM 40.9808 -75.4656 111° Southeast 391 450 13,600 -2,492 Descending New York Center
Sun 12:41:04 PM 40.9478 -75.3506 111° Southeast 376 433 11,300 -1,785 Descending New York Center
Sun 12:42:05 PM 40.9186 -75.2417 109° East 341 392 10,000 -1,574 Descending New York Center
Sun 12:43:06 PM 40.8892 -75.1353 110° East 286 329 8,100 -1,513 Descending New York Center
Sun 12:44:04 PM 40.8678 -75.0408 107° East 272 313 7,000 -559 Descending New York Center
Sun 12:45:04 PM 40.8461 -74.9461 107° East 267 307 7,000  Level New York Center
Sun 12:46:06 PM 40.8244 -74.8489 106° East 267 307 7,000 -200 Level New York Center
Sun 12:47:04 PM 40.8383 -74.7536 79° East 258 297 6,600 -555 Descending New York Center
Sun 12:48:05 PM 40.8661 -74.6647 68° East 258 297 5,900 -295 Descending New York Center
Sun 12:49:06 PM 40.9156 -74.6181 35° Northeast 222 255 6,000 50 Climbing New York Center
Sun 12:50:06 PM 40.9731 -74.5803 26° Northeast 222 255 6,000 -407 Level New York Center
Sun 12:51:04 PM 40.9944 -74.4989 71° East 217 250 5,200 -504 Descending New York Center
Sun 12:52:05 PM 41.0094 -74.4172 76° East 227 261 5,000 -98 Descending New York Center
Sun 12:53:06 PM 41.0225 -74.3300 79° East 239 275 5,000  Level New York Center
Sun 12:54:06 PM 40.9978 -74.2544 113° Southeast 222 255 5,000 -446 Level New York Center
Sun 12:55:07 PM 40.9786 -74.1956 113° Southeast 210 242 4,100 -458 Descending New York Center
Sun 12:56:04 PM 40.9556 -74.1314 115° Southeast 199 229 4,100 -412 Level New York Center
Sun 12:57:18 PM 40.9167 -74.0500 122° Southeast 204 235 3,200 -429 Descending New York TRACON
Sun 12:58:24 PM 40.8500 -74.0667 191° South 173 199 3,100 -286 Descending New York TRACON
Sun 12:59:24 PM 40.8167 -74.0833 201° Southwest 174 200 2,600 -500 Descending New York TRACON

Login

Don't have an account? Register now (free) for customized features, flight alerts, and more!